createdAt,value
2022-12-12T00:01:02.944Z,0.00
2022-12-12T00:02:00.102Z,0.03
2022-12-12T00:02:58.202Z,-0.03
2022-12-12T00:03:58.092Z,-0.02
2022-12-12T00:04:58.084Z,0.07
2022-12-12T00:05:58.073Z,0.04
2022-12-12T00:06:58.065Z,0.08
2022-12-12T00:07:58.088Z,0.05
2022-12-12T00:08:58.067Z,0.07
2022-12-12T00:09:58.050Z,0.03
2022-12-12T00:10:58.059Z,0.12
2022-12-12T00:11:58.031Z,0.08
2022-12-12T00:12:58.023Z,0.00
2022-12-12T00:13:58.007Z,-0.08
2022-12-12T00:14:58.001Z,-0.11
2022-12-12T00:15:58.073Z,-0.13
2022-12-12T00:16:57.992Z,-0.21
2022-12-12T00:17:57.980Z,-0.21
2022-12-12T00:18:57.982Z,-0.18
2022-12-12T00:19:57.965Z,-0.25
2022-12-12T00:20:57.989Z,-0.34
2022-12-12T00:21:57.952Z,-0.31
2022-12-12T00:22:57.939Z,-0.31
2022-12-12T00:23:57.943Z,-0.25
2022-12-12T00:24:57.916Z,-0.26
2022-12-12T00:25:58.921Z,-0.20
2022-12-12T00:27:58.461Z,-0.34
2022-12-12T00:28:58.434Z,-0.32
2022-12-12T00:29:58.435Z,-0.25
2022-12-12T00:30:58.483Z,-0.23
2022-12-12T00:31:59.523Z,-0.25
2022-12-12T00:32:59.513Z,-0.28
2022-12-12T00:33:59.491Z,-0.31
2022-12-12T00:34:59.480Z,-0.21
2022-12-12T00:35:59.478Z,-0.15
2022-12-12T00:36:59.470Z,-0.17
2022-12-12T00:37:59.457Z,-0.13
2022-12-12T00:38:59.462Z,-0.13
2022-12-12T00:39:59.441Z,0.01
2022-12-12T00:40:59.438Z,-0.02
2022-12-12T00:41:59.427Z,-0.03
2022-12-12T00:42:59.429Z,-0.02
2022-12-12T00:43:59.430Z,0.03
2022-12-12T00:44:59.409Z,-0.08
2022-12-12T00:45:59.523Z,-0.07
2022-12-12T00:46:59.397Z,0.00
2022-12-12T00:47:59.384Z,-0.10
2022-12-12T00:48:59.383Z,-0.07
2022-12-12T00:49:59.368Z,0.04
2022-12-12T00:50:59.367Z,0.01
2022-12-12T00:51:59.354Z,0.03
2022-12-12T00:52:59.346Z,0.08
2022-12-12T00:53:59.339Z,0.03
2022-12-12T00:54:59.328Z,0.11
2022-12-12T00:55:59.327Z,0.15
2022-12-12T00:56:59.311Z,0.08
2022-12-12T00:57:59.304Z,0.10
2022-12-12T00:58:59.292Z,0.05
2022-12-12T00:59:59.292Z,0.16
2022-12-12T01:00:59.277Z,0.08
2022-12-12T01:01:59.301Z,0.10
2022-12-12T01:02:59.342Z,0.10
2022-12-12T01:03:59.261Z,0.08
2022-12-12T01:04:59.248Z,0.15
2022-12-12T01:05:59.239Z,0.07
2022-12-12T01:06:59.237Z,0.10
2022-12-12T01:07:59.282Z,0.08
2022-12-12T01:08:59.217Z,0.05
2022-12-12T01:09:59.208Z,0.00
2022-12-12T01:10:59.215Z,0.08
2022-12-12T01:11:59.206Z,0.07
2022-12-12T01:12:59.800Z,0.15
2022-12-12T01:13:59.177Z,0.18
2022-12-12T01:14:59.178Z,0.15
2022-12-12T01:15:59.326Z,0.15
2022-12-12T01:16:59.159Z,0.16
2022-12-12T01:17:59.150Z,0.12
2022-12-12T01:18:59.144Z,0.08
2022-12-12T01:19:59.129Z,-0.07
2022-12-12T01:20:59.129Z,-0.11
2022-12-12T01:21:59.121Z,-0.15
2022-12-12T01:22:59.112Z,-0.29
2022-12-12T01:23:59.114Z,-0.29
2022-12-12T01:24:59.093Z,-0.23
2022-12-12T01:25:59.087Z,-0.35
2022-12-12T01:26:59.091Z,-0.31
2022-12-12T01:27:59.067Z,-0.36
2022-12-12T01:28:59.077Z,-0.34
2022-12-12T01:29:59.066Z,-0.32
2022-12-12T01:30:59.136Z,-0.26
2022-12-12T01:31:59.115Z,-0.14
2022-12-12T01:32:59.036Z,-0.21
2022-12-12T01:33:59.040Z,-0.23
2022-12-12T01:34:59.027Z,-0.18
2022-12-12T01:35:59.004Z,-0.25
2022-12-12T01:36:59.003Z,-0.26
2022-12-12T01:37:59.002Z,-0.13
2022-12-12T01:38:59.011Z,-0.20
2022-12-12T01:39:58.983Z,-0.21
2022-12-12T01:40:58.969Z,-0.25
2022-12-12T01:41:58.958Z,-0.26
2022-12-12T01:42:58.956Z,-0.25
2022-12-12T01:43:58.952Z,-0.23
2022-12-12T01:44:58.932Z,-0.20
2022-12-12T01:45:58.931Z,-0.15
2022-12-12T01:46:58.939Z,-0.25
2022-12-12T01:48:03.556Z,-0.32
2022-12-12T01:49:00.903Z,-0.25
2022-12-12T01:49:58.896Z,-0.21
2022-12-12T01:50:58.883Z,-0.15
2022-12-12T01:51:59.886Z,-0.15
2022-12-12T01:52:58.899Z,-0.15
2022-12-12T01:53:58.859Z,-0.14
2022-12-12T01:54:58.853Z,-0.08
2022-12-12T01:55:58.849Z,-0.17
2022-12-12T01:56:58.842Z,-0.07
2022-12-12T01:57:58.845Z,-0.21
2022-12-12T01:58:58.835Z,-0.17
2022-12-12T01:59:58.838Z,-0.25
2022-12-12T02:00:58.867Z,-0.20
2022-12-12T02:01:58.885Z,-0.15
2022-12-12T02:02:58.790Z,-0.23
2022-12-12T02:03:58.789Z,-0.17
2022-12-12T02:04:58.786Z,-0.21
2022-12-12T02:05:58.779Z,-0.25
2022-12-12T02:06:58.763Z,-0.21
2022-12-12T02:07:58.798Z,-0.18
2022-12-12T02:08:58.757Z,-0.26
2022-12-12T02:09:58.817Z,-0.43
2022-12-12T02:10:58.872Z,-0.31
2022-12-12T02:11:58.722Z,-0.50
2022-12-12T02:12:58.719Z,-0.56
2022-12-12T02:13:58.714Z,-0.44
2022-12-12T02:14:58.714Z,-0.59
2022-12-12T02:15:58.751Z,-0.64
2022-12-12T02:16:58.707Z,-0.72
2022-12-12T02:18:02.250Z,-0.77
2022-12-12T02:18:59.691Z,-0.86
2022-12-12T02:19:58.690Z,-0.82
2022-12-12T02:20:58.680Z,-0.97
2022-12-12T02:21:58.654Z,-0.85
2022-12-12T02:22:58.655Z,-0.86
2022-12-12T02:23:58.633Z,-0.93
2022-12-12T02:24:58.642Z,-0.90
2022-12-12T02:25:58.618Z,-0.86
2022-12-12T02:26:58.605Z,-0.85
2022-12-12T02:27:58.630Z,-0.96
2022-12-12T02:28:58.603Z,-0.90
2022-12-12T02:29:58.587Z,-0.99
2022-12-12T02:30:59.590Z,-0.94
2022-12-12T02:31:58.580Z,-0.93
2022-12-12T02:32:58.564Z,-0.99
2022-12-12T02:35:06.032Z,-0.93
2022-12-12T02:36:06.007Z,-1.04
2022-12-12T02:37:06.008Z,-1.11
2022-12-12T02:38:05.992Z,-1.11
2022-12-12T02:39:07.080Z,-1.07
2022-12-12T02:40:07.073Z,-1.04
2022-12-12T02:41:07.063Z,-1.11
2022-12-12T02:42:07.063Z,-1.12
2022-12-12T02:43:07.085Z,-1.20
2022-12-12T02:44:07.045Z,-1.33
2022-12-12T02:45:07.047Z,-1.27
2022-12-12T02:46:07.029Z,-1.46
2022-12-12T02:47:07.037Z,-1.32
2022-12-12T02:48:07.012Z,-1.33
2022-12-12T02:49:07.002Z,-1.47
2022-12-12T02:50:07.020Z,-1.43
2022-12-12T02:51:06.989Z,-1.43
2022-12-12T02:52:06.982Z,-1.51
2022-12-12T02:53:06.975Z,-1.48
2022-12-12T02:54:06.970Z,-1.50
2022-12-12T02:55:06.957Z,-1.54
2022-12-12T02:56:06.954Z,-1.50
2022-12-12T02:57:06.945Z,-1.62
2022-12-12T02:58:07.435Z,-1.51
2022-12-12T02:59:06.960Z,-1.53
2022-12-12T03:00:06.921Z,-1.62
2022-12-12T03:01:06.961Z,-1.66
2022-12-12T03:02:06.993Z,-1.64
2022-12-12T03:03:06.888Z,-1.77
2022-12-12T03:04:06.889Z,-1.66
2022-12-12T03:05:06.879Z,-1.61
2022-12-12T03:06:06.881Z,-1.68
2022-12-12T03:07:06.903Z,-1.65
2022-12-12T03:08:06.878Z,-1.77
2022-12-12T03:09:06.849Z,-1.79
2022-12-12T03:10:06.866Z,-1.79
2022-12-12T03:11:06.862Z,-1.69
2022-12-12T03:12:06.823Z,-1.69
2022-12-12T03:13:06.838Z,-1.76
2022-12-12T03:14:06.826Z,-1.71
2022-12-12T03:15:06.877Z,-1.89
2022-12-12T03:16:06.974Z,-1.87
2022-12-12T03:17:06.794Z,-1.95
2022-12-12T03:18:07.369Z,-1.98
2022-12-12T03:19:06.774Z,-2.01
2022-12-12T03:20:06.769Z,-2.05
2022-12-12T03:21:06.754Z,-2.15
2022-12-12T03:22:06.750Z,-1.97
2022-12-12T03:23:06.758Z,-2.05
2022-12-12T03:24:06.732Z,-2.05
2022-12-12T03:25:06.725Z,-2.07
2022-12-12T03:26:06.717Z,-2.01
2022-12-12T03:27:06.719Z,-2.08
2022-12-12T03:28:06.705Z,-2.13
2022-12-12T03:29:06.695Z,-2.19
2022-12-12T03:30:06.693Z,-2.19
2022-12-12T03:31:06.677Z,-2.19
2022-12-12T03:32:06.672Z,-2.16
2022-12-12T03:33:06.677Z,-2.25
2022-12-12T03:34:06.654Z,-2.16
2022-12-12T03:35:06.644Z,-2.18
2022-12-12T03:36:06.642Z,-2.34
2022-12-12T03:37:06.710Z,-2.34
2022-12-12T03:38:06.648Z,-2.32
2022-12-12T03:39:06.685Z,-2.35
2022-12-12T03:40:06.611Z,-2.45
2022-12-12T03:41:06.663Z,-2.34
2022-12-12T03:42:06.621Z,-2.50
2022-12-12T03:43:06.620Z,-2.45
2022-12-12T03:44:06.681Z,-2.48
2022-12-12T03:45:06.576Z,-2.56
2022-12-12T03:46:06.603Z,-2.48
2022-12-12T03:47:06.575Z,-2.55
2022-12-12T03:48:06.571Z,-2.63
2022-12-12T03:49:06.537Z,-2.58
2022-12-12T03:50:06.544Z,-2.59
2022-12-12T03:51:06.547Z,-2.63
2022-12-12T03:52:06.535Z,-2.59
2022-12-12T03:53:06.524Z,-2.60
2022-12-12T03:54:06.520Z,-2.58
2022-12-12T03:55:06.504Z,-2.60
2022-12-12T03:56:06.534Z,-2.56
2022-12-12T03:57:06.505Z,-2.58
2022-12-12T03:58:06.518Z,-2.76
2022-12-12T03:59:06.468Z,-2.71
2022-12-12T04:00:06.456Z,-2.76
2022-12-12T04:01:06.499Z,-2.65
2022-12-12T04:02:06.517Z,-2.71
2022-12-12T04:03:06.429Z,-2.77
2022-12-12T04:04:06.502Z,-2.76
2022-12-12T04:05:06.411Z,-2.84
2022-12-12T04:06:06.405Z,-2.91
2022-12-12T04:07:06.952Z,-2.83
2022-12-12T04:08:06.426Z,-2.94
2022-12-12T04:09:06.388Z,-2.94
2022-12-12T04:10:06.384Z,-2.91
2022-12-12T04:11:06.378Z,-3.02
2022-12-12T04:12:06.365Z,-2.98
2022-12-12T04:13:06.355Z,-3.12
2022-12-12T04:14:06.347Z,-2.99
2022-12-12T04:15:06.330Z,-3.02
2022-12-12T04:16:06.476Z,-2.97
2022-12-12T04:17:06.313Z,-3.01
2022-12-12T04:18:06.332Z,-3.09
2022-12-12T04:19:06.307Z,-3.13
2022-12-12T04:20:06.334Z,-3.13
2022-12-12T04:21:06.285Z,-2.99
2022-12-12T04:22:06.283Z,-3.10
2022-12-12T04:23:06.286Z,-3.20
2022-12-12T04:24:06.267Z,-3.17
2022-12-12T04:25:06.252Z,-3.17
2022-12-12T04:26:06.246Z,-3.19
2022-12-12T04:27:06.246Z,-3.15
2022-12-12T04:28:06.242Z,-3.13
2022-12-12T04:29:06.229Z,-3.13
2022-12-12T04:30:06.213Z,-3.10
2022-12-12T04:31:06.213Z,-3.15
2022-12-12T04:32:06.245Z,-3.22
2022-12-12T04:33:06.213Z,-3.20
2022-12-12T04:34:06.189Z,-3.15
2022-12-12T04:35:06.205Z,-3.33
2022-12-12T04:36:06.173Z,-3.12
2022-12-12T04:37:06.159Z,-2.97
2022-12-12T04:38:06.156Z,-3.01
2022-12-12T04:39:06.171Z,-3.07
2022-12-12T04:40:06.142Z,-3.13
2022-12-12T04:41:06.133Z,-3.13
2022-12-12T04:42:06.122Z,-3.28
2022-12-12T04:43:06.122Z,-3.30
2022-12-12T04:44:06.126Z,-3.34
2022-12-12T04:45:06.106Z,-3.37
2022-12-12T04:46:06.116Z,-3.41
2022-12-12T04:47:06.084Z,-3.34
2022-12-12T04:48:06.080Z,-3.46
2022-12-12T04:49:06.078Z,-3.41
2022-12-12T04:50:06.062Z,-3.40
2022-12-12T04:51:06.072Z,-3.48
2022-12-12T04:52:06.051Z,-3.45
2022-12-12T04:53:06.039Z,-3.52
2022-12-12T04:54:06.037Z,-3.59
2022-12-12T04:55:06.039Z,-3.48
2022-12-12T04:56:06.017Z,-3.49
2022-12-12T04:57:06.010Z,-3.46
2022-12-12T04:58:06.014Z,-3.45
2022-12-12T04:59:06.018Z,-3.56
2022-12-12T05:00:05.984Z,-3.59
2022-12-12T05:01:07.919Z,-3.59
2022-12-12T05:02:06.018Z,-3.67
2022-12-12T05:03:05.963Z,-3.58
2022-12-12T05:04:05.967Z,-3.66
2022-12-12T05:05:05.957Z,-3.72
2022-12-12T05:06:05.957Z,-3.61
2022-12-12T05:07:05.935Z,-3.70
2022-12-12T05:08:05.987Z,-3.67
2022-12-12T05:09:05.930Z,-3.69
2022-12-12T05:10:05.920Z,-3.70
2022-12-12T05:11:05.909Z,-3.74
2022-12-12T05:12:05.902Z,-3.67
2022-12-12T05:13:05.899Z,-3.78
2022-12-12T05:14:05.898Z,-3.82
2022-12-12T05:15:05.892Z,-3.83
2022-12-12T05:16:05.884Z,-3.82
2022-12-12T05:17:05.886Z,-3.96
2022-12-12T05:18:05.856Z,-3.92
2022-12-12T05:19:05.863Z,-3.93
2022-12-12T05:20:05.868Z,-3.88
2022-12-12T05:21:05.875Z,-3.82
2022-12-12T05:22:05.851Z,-3.88
2022-12-12T05:23:05.829Z,-3.95
2022-12-12T05:24:05.839Z,-3.92
2022-12-12T05:25:05.802Z,-3.96
2022-12-12T05:26:05.800Z,-3.92
2022-12-12T05:27:05.800Z,-3.98
2022-12-12T05:28:05.782Z,-4.02
2022-12-12T05:29:07.664Z,-3.95
2022-12-12T05:30:06.771Z,-3.99
2022-12-12T05:31:05.896Z,-4.06
2022-12-12T05:32:05.754Z,-4.09
2022-12-12T05:33:05.742Z,-4.13
2022-12-12T05:34:05.739Z,-4.03
2022-12-12T05:35:05.728Z,-4.03
2022-12-12T05:36:05.724Z,-4.10
2022-12-12T05:37:05.720Z,-4.16
2022-12-12T05:38:05.714Z,-4.17
2022-12-12T05:39:05.700Z,-4.22
2022-12-12T05:40:05.694Z,-4.14
2022-12-12T05:41:06.371Z,-4.13
2022-12-12T05:42:05.683Z,-4.06
2022-12-12T05:43:05.672Z,-4.09
2022-12-12T05:44:05.666Z,-4.06
2022-12-12T05:45:05.658Z,-4.06
2022-12-12T05:46:06.516Z,-4.09
2022-12-12T05:47:05.659Z,-4.14
2022-12-12T05:48:05.646Z,-4.04
2022-12-12T05:49:05.625Z,-4.10
2022-12-12T05:50:05.624Z,-4.16
2022-12-12T05:51:05.610Z,-4.12
2022-12-12T05:52:06.377Z,-4.06
2022-12-12T05:53:05.604Z,-4.10
2022-12-12T05:54:05.590Z,-4.04
2022-12-12T05:55:05.579Z,-4.10
2022-12-12T05:56:05.572Z,-4.21
2022-12-12T05:57:05.575Z,-4.31
2022-12-12T05:58:05.561Z,-4.31
2022-12-12T05:59:05.556Z,-4.25
2022-12-12T06:00:05.541Z,-4.22
2022-12-12T06:01:05.565Z,-4.27
2022-12-12T06:02:05.570Z,-4.24
2022-12-12T06:03:05.536Z,-4.24
2022-12-12T06:04:05.575Z,-4.25
2022-12-12T06:05:05.505Z,-4.31
2022-12-12T06:06:05.499Z,-4.46
2022-12-12T06:07:05.521Z,-4.52
2022-12-12T06:08:05.528Z,-4.38
2022-12-12T06:09:05.497Z,-4.52
2022-12-12T06:10:05.466Z,-4.48
2022-12-12T06:11:05.472Z,-4.52
2022-12-12T06:12:06.375Z,-4.50
2022-12-12T06:13:05.444Z,-4.52
2022-12-12T06:14:05.446Z,-4.42
2022-12-12T06:15:05.981Z,-4.50
2022-12-12T06:16:05.453Z,-4.57
2022-12-12T06:17:05.657Z,-4.50
2022-12-12T06:18:05.406Z,-4.57
2022-12-12T06:19:05.407Z,-4.57
2022-12-12T06:20:05.390Z,-4.60
2022-12-12T06:21:05.424Z,-4.52
2022-12-12T06:22:05.388Z,-4.49
2022-12-12T06:23:05.365Z,-4.60
2022-12-12T06:24:05.369Z,-4.59
2022-12-12T06:25:05.352Z,-4.60
2022-12-12T06:26:05.344Z,-4.53
2022-12-12T06:27:05.335Z,-4.67
2022-12-12T06:28:05.325Z,-4.67
2022-12-12T06:29:05.327Z,-4.63
2022-12-12T06:30:05.315Z,-4.69
2022-12-12T06:31:09.801Z,-4.61
2022-12-12T06:32:07.302Z,-4.81
2022-12-12T06:33:05.290Z,-4.81
2022-12-12T06:34:05.290Z,-4.78
2022-12-12T06:35:05.282Z,-4.89
2022-12-12T06:36:05.266Z,-4.81
2022-12-12T06:37:05.271Z,-4.82
2022-12-12T06:38:05.253Z,-4.77
2022-12-12T06:39:05.249Z,-4.78
2022-12-12T06:40:05.247Z,-4.82
2022-12-12T06:41:05.228Z,-4.73
2022-12-12T06:42:05.228Z,-4.67
2022-12-12T06:43:05.232Z,-4.78
2022-12-12T06:44:05.225Z,-4.87
2022-12-12T06:45:05.203Z,-4.77
2022-12-12T06:46:05.288Z,-4.82
2022-12-12T06:47:05.216Z,-4.92
2022-12-12T06:48:05.174Z,-4.79
2022-12-12T06:49:05.172Z,-4.89
2022-12-12T06:50:05.158Z,-4.88
2022-12-12T06:51:05.158Z,-4.87
2022-12-12T06:52:05.148Z,-4.79
2022-12-12T06:53:05.142Z,-4.85
2022-12-12T06:54:05.153Z,-4.81
2022-12-12T06:55:05.126Z,-4.88
2022-12-12T06:56:05.122Z,-4.77
2022-12-12T06:57:05.110Z,-4.92
2022-12-12T06:58:05.097Z,-4.85
2022-12-12T06:59:05.089Z,-4.91
2022-12-12T07:00:05.084Z,-4.98
2022-12-12T07:01:05.083Z,-4.81
2022-12-12T07:02:05.104Z,-4.95
2022-12-12T07:03:05.125Z,-4.82
2022-12-12T07:04:05.067Z,-4.87
2022-12-12T07:05:05.083Z,-4.91
2022-12-12T07:06:05.036Z,-4.95
2022-12-12T07:07:05.036Z,-4.91
2022-12-12T07:08:05.082Z,-4.92
2022-12-12T07:09:05.031Z,-4.88
2022-12-12T07:10:05.881Z,-4.87
2022-12-12T07:11:05.007Z,-4.91
2022-12-12T07:12:04.989Z,-4.87
2022-12-12T07:13:04.988Z,-4.85
2022-12-12T07:14:04.977Z,-4.95
2022-12-12T07:15:04.973Z,-4.95
2022-12-12T07:16:05.010Z,-4.87
2022-12-12T07:17:04.952Z,-4.95
2022-12-12T07:18:04.944Z,-4.99
2022-12-12T07:19:05.456Z,-4.98
2022-12-12T07:20:04.938Z,-4.88
2022-12-12T07:21:04.928Z,-4.96
2022-12-12T07:22:09.808Z,-4.99
2022-12-12T07:23:06.913Z,-4.89
2022-12-12T07:24:04.905Z,-4.88
2022-12-12T07:25:04.905Z,-4.89
2022-12-12T07:26:04.889Z,-4.91
2022-12-12T07:27:04.887Z,-4.89
2022-12-12T07:28:04.874Z,-4.91
2022-12-12T07:29:05.468Z,-4.92
2022-12-12T07:30:04.867Z,-4.84
2022-12-12T07:31:04.925Z,-4.85
2022-12-12T07:32:04.847Z,-4.85
2022-12-12T07:33:04.838Z,-4.89
2022-12-12T07:34:04.826Z,-4.84
2022-12-12T07:35:04.820Z,-4.78
2022-12-12T07:36:05.392Z,-4.89
2022-12-12T07:37:04.812Z,-4.85
2022-12-12T07:38:04.804Z,-4.87
2022-12-12T07:39:04.794Z,-4.98
2022-12-12T07:40:04.781Z,-4.91
2022-12-12T07:41:04.793Z,-4.87
2022-12-12T07:42:04.766Z,-5.00
2022-12-12T07:43:04.775Z,-5.13
2022-12-12T07:44:04.761Z,-5.05
2022-12-12T07:45:04.751Z,-5.17
2022-12-12T07:46:04.771Z,-5.08
2022-12-12T07:47:04.735Z,-5.18
2022-12-12T07:48:04.737Z,-5.14
2022-12-12T07:49:04.723Z,-5.19
2022-12-12T07:50:04.704Z,-5.19
2022-12-12T07:51:04.710Z,-5.13
2022-12-12T07:52:04.697Z,-5.02
2022-12-12T07:53:04.684Z,-5.09
2022-12-12T07:54:04.685Z,-5.10
2022-12-12T07:55:04.685Z,-5.05
2022-12-12T07:56:04.665Z,-4.96
2022-12-12T07:57:04.651Z,-4.96
2022-12-12T07:58:04.643Z,-4.88
2022-12-12T07:59:04.646Z,-4.69
2022-12-12T08:00:04.641Z,-4.66
2022-12-12T08:01:06.031Z,-4.61
2022-12-12T08:02:04.686Z,-4.63
2022-12-12T08:03:04.607Z,-4.66
2022-12-12T08:04:04.625Z,-4.67
2022-12-12T08:05:04.648Z,-4.70
2022-12-12T08:06:04.612Z,-4.71
2022-12-12T08:07:08.448Z,-4.61
2022-12-12T08:08:05.626Z,-4.60
2022-12-12T08:09:04.565Z,-4.75
2022-12-12T08:10:04.597Z,-4.81
2022-12-12T08:11:04.558Z,-4.71
2022-12-12T08:12:04.545Z,-4.85
2022-12-12T08:13:04.541Z,-4.79
2022-12-12T08:14:09.452Z,-4.67
2022-12-12T08:15:06.522Z,-4.66
2022-12-12T08:16:04.833Z,-4.63
2022-12-12T08:17:04.511Z,-4.61
2022-12-12T08:18:04.500Z,-4.50
2022-12-12T08:19:04.532Z,-4.45
2022-12-12T08:20:04.482Z,-4.49
2022-12-12T08:21:04.487Z,-4.52
2022-12-12T08:22:04.464Z,-4.41
2022-12-12T08:23:05.468Z,-4.45
2022-12-12T08:24:04.462Z,-4.52
2022-12-12T08:25:04.448Z,-4.55
2022-12-12T08:26:04.443Z,-4.64
2022-12-12T08:27:15.381Z,-4.50
2022-12-12T08:28:05.428Z,-4.55
2022-12-12T08:29:04.422Z,-4.48
2022-12-12T08:30:04.970Z,-4.41
2022-12-12T08:31:04.996Z,-4.53
2022-12-12T08:32:04.412Z,-4.38
2022-12-12T08:33:08.061Z,-4.39
2022-12-12T08:34:05.386Z,-4.35
2022-12-12T08:35:04.426Z,-4.32
2022-12-12T08:36:04.365Z,-4.27
2022-12-12T08:37:04.356Z,-4.16
2022-12-12T08:38:04.360Z,-4.21
2022-12-12T08:39:04.348Z,-4.13
2022-12-12T08:40:04.335Z,-4.10
2022-12-12T08:41:04.330Z,-4.03
2022-12-12T08:42:04.328Z,-4.02
2022-12-12T08:43:04.323Z,-3.95
2022-12-12T08:44:04.314Z,-3.88
2022-12-12T08:45:04.309Z,-3.80
2022-12-12T08:46:04.300Z,-3.75
2022-12-12T08:47:04.295Z,-3.85
2022-12-12T08:48:04.274Z,-3.67
2022-12-12T08:49:04.269Z,-3.64
2022-12-12T08:50:04.278Z,-3.59
2022-12-12T08:51:04.259Z,-3.61
2022-12-12T08:52:04.253Z,-3.70
2022-12-12T08:53:04.240Z,-3.56
2022-12-12T08:54:04.231Z,-3.63
2022-12-12T08:55:04.222Z,-3.67
2022-12-12T08:56:04.227Z,-3.56
2022-12-12T08:57:04.206Z,-3.49
2022-12-12T08:58:04.200Z,-3.51
2022-12-12T08:59:04.197Z,-3.41
2022-12-12T09:00:04.200Z,-3.34
2022-12-12T09:01:04.181Z,-3.38
2022-12-12T09:02:04.351Z,-3.16
2022-12-12T09:03:04.272Z,-3.07
2022-12-12T09:04:04.161Z,-3.25
2022-12-12T09:05:04.146Z,-3.02
2022-12-12T09:06:04.137Z,-2.97
2022-12-12T09:07:08.474Z,-2.97
2022-12-12T09:08:05.180Z,-2.89
2022-12-12T09:09:04.108Z,-2.76
2022-12-12T09:10:04.100Z,-2.76
2022-12-12T09:11:04.099Z,-2.78
2022-12-12T09:12:04.092Z,-2.73
2022-12-12T09:13:04.074Z,-2.74
2022-12-12T09:14:04.079Z,-2.71
2022-12-12T09:15:04.073Z,-2.73
2022-12-12T09:16:04.164Z,-2.74
2022-12-12T09:17:04.065Z,-2.78
2022-12-12T09:18:04.038Z,-2.80
2022-12-12T09:19:04.034Z,-2.78
2022-12-12T09:20:04.032Z,-2.73
2022-12-12T09:21:04.020Z,-2.92
2022-12-12T09:22:04.021Z,-2.91
2022-12-12T09:23:04.001Z,-2.83
2022-12-12T09:24:03.990Z,-2.78
2022-12-12T09:25:03.984Z,-2.76
2022-12-12T09:26:03.992Z,-2.70
2022-12-12T09:27:03.973Z,-2.69
2022-12-12T09:28:03.983Z,-2.65
2022-12-12T09:29:03.955Z,-2.63
2022-12-12T09:30:03.952Z,-2.70
2022-12-12T09:31:04.003Z,-2.70
2022-12-12T09:32:03.932Z,-2.69
2022-12-12T09:33:03.942Z,-2.60
2022-12-12T09:34:03.930Z,-2.47
2022-12-12T09:35:03.909Z,-2.48
2022-12-12T09:36:03.899Z,-2.48
2022-12-12T09:37:03.903Z,-2.37
2022-12-12T09:38:04.308Z,-2.35
2022-12-12T09:39:03.913Z,-2.38
2022-12-12T09:40:03.871Z,-2.53
2022-12-12T09:41:03.884Z,-2.71
2022-12-12T09:42:03.856Z,-2.59
2022-12-12T09:43:03.851Z,-2.74
2022-12-12T09:44:03.850Z,-2.63
2022-12-12T09:45:03.831Z,-2.70
2022-12-12T09:46:03.875Z,-2.73
2022-12-12T09:47:03.817Z,-2.74
2022-12-12T09:48:03.818Z,-2.73
2022-12-12T09:49:03.820Z,-2.63
2022-12-12T09:50:03.799Z,-2.52
2022-12-12T09:51:03.802Z,-2.55
2022-12-12T09:52:03.783Z,-2.60
2022-12-12T09:53:03.783Z,-2.65
2022-12-12T09:54:03.779Z,-2.52
2022-12-12T09:55:03.764Z,-2.41
2022-12-12T09:56:04.470Z,-2.38
2022-12-12T09:57:03.737Z,-2.32
2022-12-12T09:58:03.741Z,-2.16
2022-12-12T09:59:03.746Z,-2.16
2022-12-12T10:00:03.747Z,-2.05
2022-12-12T10:01:03.746Z,-2.02
2022-12-12T10:02:03.735Z,-2.16
2022-12-12T10:03:03.702Z,-2.18
2022-12-12T10:04:03.707Z,-2.19
2022-12-12T10:05:03.695Z,-2.22
2022-12-12T10:06:28.543Z,-2.16
2022-12-12T10:07:05.676Z,-2.10
2022-12-12T10:08:03.743Z,-1.95
2022-12-12T10:09:03.655Z,-1.98
2022-12-12T10:10:03.654Z,-1.90
2022-12-12T10:11:03.649Z,-1.77
2022-12-12T10:12:08.061Z,-1.71
2022-12-12T10:13:04.634Z,-1.76
2022-12-12T10:14:03.618Z,-1.62
2022-12-12T10:15:03.609Z,-1.64
2022-12-12T10:16:03.679Z,-1.89
2022-12-12T10:17:03.602Z,-2.00
2022-12-12T10:18:03.592Z,-2.02
2022-12-12T10:19:03.613Z,-2.04
2022-12-12T10:20:03.620Z,-1.97
2022-12-12T10:21:03.566Z,-1.95
2022-12-12T10:22:03.560Z,-1.95
2022-12-12T10:23:03.551Z,-1.79
2022-12-12T10:24:03.543Z,-1.72
2022-12-12T10:25:03.543Z,-1.76
2022-12-12T10:26:03.549Z,-1.51
2022-12-12T10:27:03.528Z,-1.54
2022-12-12T10:28:03.514Z,-1.54
2022-12-12T10:29:03.507Z,-1.51
2022-12-12T10:30:03.498Z,-1.58
2022-12-12T10:31:03.490Z,-1.48
2022-12-12T10:32:03.525Z,-1.48
2022-12-12T10:33:03.485Z,-1.47
2022-12-12T10:34:03.467Z,-1.47
2022-12-12T10:35:03.485Z,-1.43
2022-12-12T10:36:03.470Z,-1.47
2022-12-12T10:37:03.475Z,-1.54
2022-12-12T10:38:03.480Z,-1.50
2022-12-12T10:39:03.433Z,-1.41
2022-12-12T10:40:03.440Z,-1.50
2022-12-12T10:41:03.415Z,-1.50
2022-12-12T10:42:03.404Z,-1.47
2022-12-12T10:43:03.402Z,-1.58
2022-12-12T10:44:03.404Z,-1.56
2022-12-12T10:45:03.397Z,-1.50
2022-12-12T10:46:03.462Z,-1.50
2022-12-12T10:47:03.413Z,-1.48
2022-12-12T10:48:03.362Z,-1.41
2022-12-12T10:49:03.358Z,-1.29
2022-12-12T10:50:05.426Z,-1.22
2022-12-12T10:51:04.906Z,-1.20
2022-12-12T10:52:03.339Z,-1.15
2022-12-12T10:53:03.316Z,-1.25
2022-12-12T10:54:03.980Z,-1.19
2022-12-12T10:55:03.301Z,-1.14
2022-12-12T10:56:03.310Z,-1.25
2022-12-12T10:57:03.287Z,-1.15
2022-12-12T10:58:03.307Z,-1.08
2022-12-12T10:59:03.276Z,-1.22
2022-12-12T11:00:03.263Z,-1.15
2022-12-12T11:01:03.320Z,-1.14
2022-12-12T11:02:11.136Z,-1.05
2022-12-12T11:03:05.315Z,-1.08
2022-12-12T11:04:03.278Z,-1.11
2022-12-12T11:05:03.235Z,-0.99
2022-12-12T11:06:03.217Z,-1.27
2022-12-12T11:07:03.212Z,-1.33
2022-12-12T11:08:03.275Z,-1.22
2022-12-12T11:09:03.204Z,-1.22
2022-12-12T11:10:03.192Z,-1.17
2022-12-12T11:11:03.179Z,-0.99
2022-12-12T11:12:03.177Z,-1.05
2022-12-12T11:13:03.172Z,-0.97
2022-12-12T11:14:04.153Z,-0.96
2022-12-12T11:15:03.152Z,-1.01
2022-12-12T11:16:03.208Z,-1.01
2022-12-12T11:17:03.595Z,-0.94
2022-12-12T11:18:06.391Z,-1.05
2022-12-12T11:19:04.112Z,-1.12
2022-12-12T11:20:03.109Z,-1.01
2022-12-12T11:21:03.099Z,-1.01
2022-12-12T11:22:03.095Z,-0.97
2022-12-12T11:23:03.122Z,-0.97
2022-12-12T11:24:03.080Z,-1.04
2022-12-12T11:25:03.072Z,-0.99
2022-12-12T11:26:03.059Z,-0.86
2022-12-12T11:27:04.055Z,-1.01
2022-12-12T11:28:06.617Z,-1.01
2022-12-12T11:29:06.979Z,-1.01
2022-12-12T11:30:03.033Z,-0.89
2022-12-12T11:31:03.030Z,-0.96
2022-12-12T11:32:03.045Z,-0.91
2022-12-12T11:33:04.484Z,-0.94
2022-12-12T11:34:03.016Z,-0.99
2022-12-12T11:35:03.000Z,-1.17
2022-12-12T11:36:03.001Z,-1.27
2022-12-12T11:37:02.979Z,-1.50
2022-12-12T11:38:02.972Z,-1.48
2022-12-12T11:39:03.923Z,-1.25
2022-12-12T11:40:02.962Z,-1.12
2022-12-12T11:41:02.962Z,-1.01
2022-12-12T11:42:02.945Z,-1.05
2022-12-12T11:43:02.940Z,-1.01
2022-12-12T11:44:02.923Z,-0.99
2022-12-12T11:45:02.928Z,-0.97
2022-12-12T11:46:02.986Z,-0.96
2022-12-12T11:47:02.908Z,-0.80
2022-12-12T11:48:02.893Z,-0.67
2022-12-12T11:49:02.886Z,-0.68
2022-12-12T11:50:09.339Z,-0.59
2022-12-12T11:51:04.875Z,-0.62
2022-12-12T11:52:02.891Z,-0.59
2022-12-12T11:53:02.860Z,-0.53
2022-12-12T11:54:02.875Z,-0.80
2022-12-12T11:55:02.856Z,-1.14
2022-12-12T11:56:02.849Z,-1.08
2022-12-12T11:57:02.847Z,-1.07
2022-12-12T11:58:04.093Z,-1.08
2022-12-12T11:59:05.998Z,-0.96
2022-12-12T12:00:02.901Z,-0.85
2022-12-12T12:01:02.808Z,-0.91
2022-12-12T12:02:02.794Z,-0.70
2022-12-12T12:03:02.850Z,-0.67
2022-12-12T12:04:02.876Z,-0.71
2022-12-12T12:05:02.831Z,-0.62
2022-12-12T12:06:04.402Z,-0.49
2022-12-12T12:07:02.760Z,-0.52
2022-12-12T12:08:03.035Z,-0.54
2022-12-12T12:09:03.887Z,-0.50
2022-12-12T12:11:09.068Z,-0.43
2022-12-12T12:12:09.024Z,-0.36
2022-12-12T12:13:09.022Z,-0.39
2022-12-12T12:14:09.011Z,-0.43
2022-12-12T12:15:09.008Z,-0.47
2022-12-12T12:16:09.009Z,-0.39
2022-12-12T12:17:08.984Z,-0.44
2022-12-12T12:18:09.010Z,-0.36
2022-12-12T12:19:08.968Z,-0.25
2022-12-12T12:20:08.971Z,-0.32
2022-12-12T12:21:08.963Z,-0.32
2022-12-12T12:22:08.952Z,-0.47
2022-12-12T12:23:08.939Z,-0.34
2022-12-12T12:24:10.030Z,-0.44
2022-12-12T12:25:10.025Z,-0.52
2022-12-12T12:26:10.005Z,-0.36
2022-12-12T12:27:10.005Z,-0.38
2022-12-12T12:28:09.992Z,-0.44
2022-12-12T12:29:09.985Z,-0.34
2022-12-12T12:30:09.987Z,-0.39
2022-12-12T12:31:10.046Z,-0.46
2022-12-12T12:32:09.967Z,-0.34
2022-12-12T12:33:09.953Z,-0.26
2022-12-12T12:34:09.978Z,-0.35
2022-12-12T12:35:09.942Z,-0.47
2022-12-12T12:36:09.932Z,-0.57
2022-12-12T12:37:09.927Z,-0.54
2022-12-12T12:38:09.925Z,-0.64
2022-12-12T12:39:09.908Z,-0.70
2022-12-12T12:40:09.907Z,-0.65
2022-12-12T12:41:09.891Z,-0.56
2022-12-12T12:42:10.393Z,-0.59
2022-12-12T12:43:09.902Z,-0.59
2022-12-12T12:44:09.864Z,-0.47
2022-12-12T12:45:09.864Z,-0.46
2022-12-12T12:46:09.919Z,-0.75
2022-12-12T12:47:09.850Z,-0.90
2022-12-12T12:48:10.802Z,-0.82
2022-12-12T12:49:10.933Z,-0.86
2022-12-12T12:50:09.829Z,-0.86
2022-12-12T12:51:10.422Z,-0.90
2022-12-12T12:52:09.821Z,-0.91
2022-12-12T12:53:09.803Z,-0.86
2022-12-12T12:54:09.800Z,-0.90
2022-12-12T12:55:09.787Z,-0.83
2022-12-12T12:56:10.781Z,-0.83
2022-12-12T12:57:09.773Z,-0.83
2022-12-12T12:58:42.921Z,-0.86